Time;durP1;ratioP1;P1;durP2;ratioP2;P2;SDS_P1;SDS_P2;PMS_P1;PMS_P2;Temp;Humidity;BMP_temperature;BMP_pressure;BME280_temperature;BME280_humidity;BME280_pressure;Samples;Min_cycle;Max_cycle;Signal;HPM_P1;HPM_P2
2023/02/08 00:01:17;;;;;;;;;;;;;;;19.51;26.49;102861.06;105866;1286;61542;-79
2023/02/08 00:03:42;;;;;;;;;;;;;;;19.51;26.42;102865.89;105924;1286;74483;-79
2023/02/08 00:06:08;;;;;;;;;;;;;;;19.52;26.50;102870.54;105854;1286;61252;-79
2023/02/08 00:08:34;;;;;;;;;;;;;;;19.51;26.38;102872.66;105859;1286;61278;-79
2023/02/08 00:10:59;;;;;;;;;;;;;;;19.51;26.52;102881.41;105841;1285;60094;-79
2023/02/08 00:13:25;;;;;;;;;;;;;;;19.51;26.53;102881.79;105800;1286;61358;-79
2023/02/08 00:15:51;;;;;;;;;;;;;;;19.51;26.39;102889.10;105835;1286;61540;-79
2023/02/08 00:18:17;;;;;;;;;;;;;;;19.51;26.53;102892.14;105801;1286;61301;-79
2023/02/08 00:20:42;;;;;;;;;;;;;;;19.51;26.62;102896.23;105823;1286;61238;-79
2023/02/08 00:23:08;;;;;;;;;;;;;;;19.51;26.41;102899.30;105875;1285;61323;-79
2023/02/08 00:25:34;;;;;;;;;;;;;;;19.51;26.53;102902.33;105778;1286;61276;-79
2023/02/08 00:28:00;;;;;;;;;;;;;;;19.51;26.44;102901.95;105794;1286;61242;-79
2023/02/08 00:30:26;;;;;;;;;;;;;;;19.51;26.54;102901.96;105806;1286;61223;-79
2023/02/08 00:32:51;;;;;;;;;;;;;;;19.51;26.47;102904.27;105835;1286;61295;-79
2023/02/08 00:35:17;;;;;;;;;;;;;;;19.51;26.63;102907.33;105782;1286;61285;-79
2023/02/08 00:37:43;;;;;;;;;;;;;;;19.51;26.67;102911.06;105766;1285;61282;-79
2023/02/08 00:40:09;;;;;;;;;;;;;;;19.51;26.61;102914.45;105812;1286;61361;-79
2023/02/08 00:42:35;;;;;;;;;;;;;;;19.51;26.64;102916.42;105851;1285;61276;-79
2023/02/08 00:45:00;;;;;;;;;;;;;;;19.51;26.76;102923.73;105791;1286;61365;-79
2023/02/08 00:47:26;;;;;;;;;;;;;;;19.51;26.74;102928.56;106041;1288;61646;-79
2023/02/08 00:49:52;;;;;;;;;;;;;;;19.52;26.65;102936.23;105826;1285;74143;-79
2023/02/08 00:52:18;;;;;;;;;;;;;;;19.51;26.74;102936.09;105773;1284;61268;-79
2023/02/08 00:54:43;;;;;;;;;;;;;;;19.51;26.71;102939.64;105805;1286;61361;-79
2023/02/08 00:57:09;;;;;;;;;;;;;;;19.51;26.61;102942.67;105867;1288;61783;-79
2023/02/08 00:59:34;;;;;;;;;;;;;;;19.51;26.67;102949.29;105819;1286;61396;-79
2023/02/08 01:02:00;;;;;;;;;;;;;;;19.51;26.74;102947.85;105757;1286;75526;-79
2023/02/08 01:04:25;;;;;;;;;;;;;;;19.51;26.78;102945.55;105805;1286;61270;-79
2023/02/08 01:06:51;;;;;;;;;;;;;;;19.50;26.71;102946.45;105791;1285;61259;-79
2023/02/08 01:09:16;;;;;;;;;;;;;;;19.50;26.79;102950.73;105881;1285;61336;-79
2023/02/08 01:11:42;;;;;;;;;;;;;;;19.50;26.68;102955.74;105926;1285;61269;-79
2023/02/08 01:14:07;;;;;;;;;;;;;;;19.49;26.67;102959.52;105798;1286;74510;-79
2023/02/08 01:16:33;;;;;;;;;;;;;;;19.50;26.76;102963.23;105802;1285;61349;-79
2023/02/08 01:19:00;;;;;;;;;;;;;;;19.49;26.59;102959.89;105900;1284;61270;-79
2023/02/08 01:21:26;;;;;;;;;;;;;;;19.49;26.77;102960.78;105809;1286;61366;-79
2023/02/08 01:23:51;;;;;;;;;;;;;;;19.49;26.76;102963.99;105796;1285;61244;-79
2023/02/08 01:26:18;;;;;;;;;;;;;;;19.49;26.77;102971.49;105866;1284;61285;-79
2023/02/08 01:28:45;;;;;;;;;;;;;;;19.49;26.69;102971.15;105811;1286;61294;-79
2023/02/08 01:31:12;;;;;;;;;;;;;;;19.49;26.86;102973.82;106019;1286;61342;-79
2023/02/08 01:33:40;;;;;;;;;;;;;;;19.48;26.72;102978.14;105771;1284;75411;-79
2023/02/08 01:36:07;;;;;;;;;;;;;;;19.48;26.71;102980.45;105894;1285;61358;-79
2023/02/08 01:38:34;;;;;;;;;;;;;;;19.49;26.62;102982.73;105907;1285;61318;-79
2023/02/08 01:40:59;;;;;;;;;;;;;;;19.48;26.65;102987.42;105968;1285;61231;-79
2023/02/08 01:43:30;;;;;;;;;;;;;;;19.48;26.79;102992.08;105880;1287;61425;-79
2023/02/08 01:45:56;;;;;;;;;;;;;;;19.48;26.64;102991.72;105869;1285;61293;-79
2023/02/08 01:48:28;;;;;;;;;;;;;;;19.48;26.67;103001.17;105810;1284;61316;-79
2023/02/08 01:50:55;;;;;;;;;;;;;;;19.48;26.82;103003.14;105876;1286;72422;-79
2023/02/08 01:53:20;;;;;;;;;;;;;;;19.48;26.71;103006.73;105616;1286;73802;-79
2023/02/08 01:55:47;;;;;;;;;;;;;;;19.48;26.69;103005.30;105891;1286;59582;-79
2023/02/08 01:58:12;;;;;;;;;;;;;;;19.48;26.64;103012.42;105829;1286;61304;-79
2023/02/08 02:00:38;;;;;;;;;;;;;;;19.49;26.58;103009.55;105881;1285;61254;-79
2023/02/08 02:03:05;;;;;;;;;;;;;;;19.48;26.63;103011.73;105795;1284;61394;-79
2023/02/08 02:05:38;;;;;;;;;;;;;;;19.47;26.54;103010.66;105826;1284;61417;-80
2023/02/08 02:08:05;;;;;;;;;;;;;;;19.48;26.54;103014.58;105821;1286;61288;-80
2023/02/08 02:10:32;;;;;;;;;;;;;;;19.47;26.62;103018.16;105792;1286;61148;-80
2023/02/08 02:13:01;;;;;;;;;;;;;;;19.48;26.50;103017.63;105817;1284;61581;-80
2023/02/08 02:15:27;;;;;;;;;;;;;;;19.48;26.65;103021.19;105799;1286;61289;-80
2023/02/08 02:17:52;;;;;;;;;;;;;;;19.47;26.54;103021.55;105795;1285;61256;-80
2023/02/08 02:20:33;;;;;;;;;;;;;;;19.48;26.54;103022.45;105796;1286;61303;-80
2023/02/08 02:23:22;;;;;;;;;;;;;;;19.48;26.61;103024.41;105847;1286;74576;-80
2023/02/08 02:25:50;;;;;;;;;;;;;;;19.47;26.55;103028.34;105193;1291;61199;-79
2023/02/08 02:28:31;;;;;;;;;;;;;;;19.47;26.57;103033.70;105149;1291;61774;-79
2023/02/08 02:31:03;;;;;;;;;;;;;;;19.48;26.60;103037.79;105204;1292;72553;-79
2023/02/08 02:33:52;;;;;;;;;;;;;;;19.47;26.56;103037.27;105189;1292;74629;-79
2023/02/08 02:36:41;;;;;;;;;;;;;;;19.48;26.58;103036.73;105156;1291;61375;-79
2023/02/08 02:39:24;;;;;;;;;;;;;;;19.47;26.60;103028.70;104850;1297;61834;-79
2023/02/08 02:44:38;;;;;;;;;;;;;;;19.48;26.51;103039.77;104785;1298;75401;-80
2023/02/08 02:47:07;;;;;;;;;;;;;;;19.47;26.48;103039.59;104808;1296;61382;-80
2023/02/08 02:49:38;;;;;;;;;;;;;;;19.47;26.38;103038.52;104698;1298;61150;-80
2023/02/08 02:52:03;;;;;;;;;;;;;;;19.47;26.33;103038.89;104725;1298;72966;-80
2023/02/08 02:54:34;;;;;;;;;;;;;;;19.47;26.46;103042.11;104835;1298;61491;-80
2023/02/08 02:57:01;;;;;;;;;;;;;;;19.47;26.49;103043.18;104779;1298;61202;-79
2023/02/08 02:59:26;;;;;;;;;;;;;;;19.46;26.35;103041.39;104785;1297;61163;-79
2023/02/08 03:01:53;;;;;;;;;;;;;;;19.47;26.37;103042.29;104805;1296;60126;-79
2023/02/08 03:04:38;;;;;;;;;;;;;;;19.47;26.36;103044.80;105181;1292;61286;-79
2023/02/08 03:07:12;;;;;;;;;;;;;;;19.46;26.39;103047.13;105335;1291;61291;-80
2023/02/08 03:09:51;;;;;;;;;;;;;;;19.46;26.31;103051.06;105325;1291;61578;-80
2023/02/08 03:12:29;;;;;;;;;;;;;;;19.47;26.25;103057.83;105182;1290;74210;-79
2023/02/08 03:14:57;;;;;;;;;;;;;;;19.47;26.37;103062.64;105318;1292;75398;-79
2023/02/08 03:17:36;;;;;;;;;;;;;;;19.47;26.36;103065.50;105665;1285;61375;-79
2023/02/08 03:20:04;;;;;;;;;;;;;;;19.47;26.28;103072.10;105663;1286;61081;-79
2023/02/08 03:22:50;;;;;;;;;;;;;;;19.47;26.26;103069.42;105979;1286;72498;-79
2023/02/08 03:25:17;;;;;;;;;;;;;;;19.47;26.36;103079.97;105953;1285;74499;-79
2023/02/08 03:27:52;;;;;;;;;;;;;;;19.46;26.26;103080.87;105893;1284;62319;-79
2023/02/08 03:30:19;;;;;;;;;;;;;;;19.46;26.21;103077.12;105890;1285;61983;-79
2023/02/08 03:32:53;;;;;;;;;;;;;;;19.46;26.24;103080.17;105886;1284;73351;-79
2023/02/08 03:35:20;;;;;;;;;;;;;;;19.46;26.33;103084.11;105878;1285;74362;-79
2023/02/08 03:37:47;;;;;;;;;;;;;;;19.46;26.33;103088.40;105790;1286;61926;-79
2023/02/08 03:40:40;;;;;;;;;;;;;;;19.46;26.28;103087.31;105894;1286;61099;-79
2023/02/08 03:43:32;;;;;;;;;;;;;;;19.46;26.22;103088.76;105844;1286;71879;-79
2023/02/08 03:46:17;;;;;;;;;;;;;;;19.45;26.11;103091.45;105621;1288;75412;-79
2023/02/08 03:48:45;;;;;;;;;;;;;;;19.45;26.18;103093.23;105869;1285;61307;-79
2023/02/08 03:51:10;;;;;;;;;;;;;;;19.45;26.23;103093.05;105835;1289;60047;-79
2023/02/08 03:53:39;;;;;;;;;;;;;;;19.46;26.23;103097.13;105807;1285;61365;-79
2023/02/08 03:56:07;;;;;;;;;;;;;;;19.45;26.26;103096.80;105803;1285;75361;-79
2023/02/08 03:58:34;;;;;;;;;;;;;;;19.46;26.04;103099.27;105809;1285;61274;-79
2023/02/08 04:01:17;;;;;;;;;;;;;;;19.46;26.15;103096.08;105802;1286;61168;-80
2023/02/08 04:04:06;;;;;;;;;;;;;;;19.45;26.18;103091.45;105820;1286;72487;-80
2023/02/08 04:06:31;;;;;;;;;;;;;;;19.45;26.16;103098.95;105125;1296;74315;-80
2023/02/08 04:08:57;;;;;;;;;;;;;;;19.45;26.03;103104.85;105202;1291;61267;-80
2023/02/08 04:11:26;;;;;;;;;;;;;;;19.44;26.00;103108.25;105071;1292;61388;-79
2023/02/08 04:13:51;;;;;;;;;;;;;;;19.45;26.16;103107.89;105068;1291;62111;-79
2023/02/08 04:16:17;;;;;;;;;;;;;;;19.45;26.05;103110.56;105056;1292;61308;-79
2023/02/08 04:18:42;;;;;;;;;;;;;;;19.44;26.11;103112.72;105099;1291;61454;-79
2023/02/08 04:21:08;;;;;;;;;;;;;;;19.44;25.96;103116.12;105107;1291;61537;-79
2023/02/08 04:23:33;;;;;;;;;;;;;;;19.44;25.97;103115.04;105157;1291;61280;-79
2023/02/08 04:25:59;;;;;;;;;;;;;;;19.45;26.04;103115.39;105187;1291;61320;-79
2023/02/08 04:28:24;;;;;;;;;;;;;;;19.44;26.12;103113.25;105099;1292;61280;-79
2023/02/08 04:30:50;;;;;;;;;;;;;;;19.44;25.93;103115.59;104899;1296;62975;-79
2023/02/08 04:33:16;;;;;;;;;;;;;;;19.43;25.98;103119.88;104871;1297;61280;-79
2023/02/08 04:35:42;;;;;;;;;;;;;;;19.43;25.79;103120.42;104823;1300;61409;-79
2023/02/08 04:38:08;;;;;;;;;;;;;;;19.43;25.97;103123.29;104870;1298;61309;-79
2023/02/08 04:40:34;;;;;;;;;;;;;;;19.43;25.91;103124.54;104799;1296;75488;-79
2023/02/08 04:43:01;;;;;;;;;;;;;;;19.43;25.87;103125.08;104870;1296;61241;-79
2023/02/08 04:45:28;;;;;;;;;;;;;;;19.42;25.84;103124.03;105361;1288;61326;-79
2023/02/08 04:47:54;;;;;;;;;;;;;;;19.42;25.87;103126.70;105415;1288;73496;-79
2023/02/08 04:50:20;;;;;;;;;;;;;;;19.42;25.83;103132.61;105277;1288;61290;-79
2023/02/08 04:52:45;;;;;;;;;;;;;;;19.43;25.89;103135.25;105364;1288;61256;-79
2023/02/08 04:55:11;;;;;;;;;;;;;;;19.42;25.90;103136.87;105465;1288;61283;-79
2023/02/08 04:57:37;;;;;;;;;;;;;;;19.43;25.83;103141.33;105331;1289;61218;-79
2023/02/08 05:00:03;;;;;;;;;;;;;;;19.43;25.90;103144.34;105348;1288;61334;-79
2023/02/08 05:02:28;;;;;;;;;;;;;;;19.43;25.82;103148.28;105635;1286;59284;-79
2023/02/08 05:04:54;;;;;;;;;;;;;;;19.42;25.69;103158.30;105635;1286;61345;-80
2023/02/08 05:07:20;;;;;;;;;;;;;;;19.40;25.79;103160.50;105640;1286;61335;-80
2023/02/08 05:10:11;;;;;;;;;;;;;;;19.38;25.63;103166.11;105885;1286;61226;-80
2023/02/08 05:12:37;;;;;;;;;;;;;;;19.35;25.68;103170.27;105158;1292;74534;-80
2023/02/08 05:15:04;;;;;;;;;;;;;;;19.34;25.66;103175.14;105068;1291;61319;-80
2023/02/08 05:17:29;;;;;;;;;;;;;;;19.33;25.84;103181.58;105060;1291;61332;-80
2023/02/08 05:19:55;;;;;;;;;;;;;;;19.33;25.52;103192.66;105149;1291;61253;-80
2023/02/08 05:22:21;;;;;;;;;;;;;;;19.34;25.64;103198.34;105064;1291;61322;-80
2023/02/08 05:24:46;;;;;;;;;;;;;;;19.34;25.67;103199.95;105089;1291;61130;-80
2023/02/08 05:27:12;;;;;;;;;;;;;;;19.34;25.54;103208.52;105013;1291;61326;-80
2023/02/08 05:29:37;;;;;;;;;;;;;;;19.33;25.46;103203.92;104892;1291;61340;-80
2023/02/08 05:32:05;;;;;;;;;;;;;;;19.30;25.43;103218.63;104733;1291;61408;-80
2023/02/08 05:34:31;;;;;;;;;;;;;;;19.24;25.58;103222.17;104916;1293;75551;-81
2023/02/08 05:37:01;;;;;;;;;;;;;;;19.17;25.65;103228.40;105238;1291;60243;-81
2023/02/08 05:39:26;;;;;;;;;;;;;;;19.11;25.62;103231.42;105402;1291;61502;-81
2023/02/08 05:41:52;;;;;;;;;;;;;;;19.05;25.76;103232.83;105301;1292;61988;-81
2023/02/08 05:44:17;;;;;;;;;;;;;;;18.98;25.71;103235.48;105489;1291;59355;-81
2023/02/08 05:46:43;;;;;;;;;;;;;;;18.91;25.90;103238.48;105388;1291;60525;-81
2023/02/08 05:49:08;;;;;;;;;;;;;;;18.86;25.73;103237.88;105497;1285;61442;-81
2023/02/08 05:51:34;;;;;;;;;;;;;;;18.81;25.80;103242.09;106046;1285;61538;-81
2023/02/08 05:53:59;;;;;;;;;;;;;;;18.77;25.82;103244.30;106121;1285;59941;-81
2023/02/08 05:56:26;;;;;;;;;;;;;;;18.73;25.87;103247.96;106176;1285;59940;-82
2023/02/08 05:58:53;;;;;;;;;;;;;;;18.71;25.84;103250.52;105948;1285;60770;-81
2023/02/08 06:01:18;;;;;;;;;;;;;;;18.65;25.75;103249.22;105972;1286;60092;-82
2023/02/08 06:03:44;;;;;;;;;;;;;;;18.42;25.69;103252.40;105934;1288;60416;-82
2023/02/08 06:06:11;;;;;;;;;;;;;;;18.31;25.66;103254.23;105870;1290;61183;-82
2023/02/08 06:08:37;;;;;;;;;;;;;;;18.31;25.81;103254.94;105967;1286;60057;-81
2023/02/08 06:11:02;;;;;;;;;;;;;;;18.33;25.88;103260.77;106417;1285;62030;-81
2023/02/08 06:13:28;;;;;;;;;;;;;;;18.33;25.83;103260.06;106157;1285;59873;-81
2023/02/08 06:15:54;;;;;;;;;;;;;;;18.34;25.95;103260.76;105909;1285;59227;-82
2023/02/08 06:18:20;;;;;;;;;;;;;;;18.34;25.91;103258.98;105990;1286;61403;-80
2023/02/08 06:20:45;;;;;;;;;;;;;;;18.35;25.92;103258.77;105996;1286;59469;-80
2023/02/08 06:23:11;;;;;;;;;;;;;;;18.38;25.81;103262.27;106036;1285;61253;-81
2023/02/08 06:25:37;;;;;;;;;;;;;;;18.46;25.69;103265.33;106161;1286;59390;-81
2023/02/08 06:28:05;;;;;;;;;;;;;;;18.54;25.95;103267.48;106022;1285;61196;-81
2023/02/08 06:30:31;;;;;;;;;;;;;;;18.61;26.01;103271.08;106080;1286;61298;-81
2023/02/08 06:32:56;;;;;;;;;;;;;;;18.66;26.12;103269.73;106201;1285;61237;-81
2023/02/08 06:35:22;;;;;;;;;;;;;;;18.70;26.12;103269.45;106092;1286;59407;-81
2023/02/08 06:37:48;;;;;;;;;;;;;;;18.72;26.12;103267.27;106185;1286;59244;-81
2023/02/08 06:40:13;;;;;;;;;;;;;;;18.75;26.07;103262.92;105973;1285;61292;-81
2023/02/08 06:42:39;;;;;;;;;;;;;;;18.78;26.02;103264.99;106031;1286;59919;-81
2023/02/08 06:45:07;;;;;;;;;;;;;;;18.82;26.06;103267.92;106033;1286;61292;-81
2023/02/08 06:47:32;;;;;;;;;;;;;;;18.84;25.94;103266.98;106119;1286;62028;-81
2023/02/08 06:49:59;;;;;;;;;;;;;;;18.88;26.03;103269.25;106160;1286;61068;-81
2023/02/08 06:52:25;;;;;;;;;;;;;;;18.91;25.94;103274.52;106119;1285;60639;-82
2023/02/08 06:54:50;;;;;;;;;;;;;;;18.96;25.94;103273.91;105948;1284;61268;-82
2023/02/08 06:57:16;;;;;;;;;;;;;;;18.94;26.08;103274.83;105982;1286;61390;-82
2023/02/08 06:59:42;;;;;;;;;;;;;;;18.88;26.11;103273.70;106020;1285;60874;-82
2023/02/08 07:02:12;;;;;;;;;;;;;;;18.85;26.40;103277.31;105433;1284;878712;-81
2023/02/08 07:04:38;;;;;;;;;;;;;;;18.82;26.46;103282.02;106017;1285;60350;-81
2023/02/08 07:07:03;;;;;;;;;;;;;;;18.80;26.44;103286.72;106106;1285;61214;-81
2023/02/08 07:09:31;;;;;;;;;;;;;;;18.80;26.47;103292.77;106045;1285;59492;-81
2023/02/08 07:11:57;;;;;;;;;;;;;;;18.80;26.44;103292.77;106471;1286;59989;-81
2023/02/08 07:14:22;;;;;;;;;;;;;;;18.82;26.35;103292.56;106022;1286;60014;-81
2023/02/08 07:16:50;;;;;;;;;;;;;;;18.84;26.35;103294.11;106052;1286;60318;-82
2023/02/08 07:19:16;;;;;;;;;;;;;;;18.86;26.29;103298.52;106593;1286;59107;-81
2023/02/08 07:22:07;;;;;;;;;;;;;;;18.89;26.31;103301.70;106125;1285;59651;-81
2023/02/08 07:24:33;;;;;;;;;;;;;;;18.92;26.36;103308.95;105547;1291;59981;-81
2023/02/08 07:27:00;;;;;;;;;;;;;;;18.94;26.32;103307.84;105343;1291;61470;-82
2023/02/08 07:29:27;;;;;;;;;;;;;;;18.96;26.38;103308.34;106003;1291;59486;-82
2023/02/08 07:31:53;;;;;;;;;;;;;;;18.98;26.21;103308.48;105788;1291;75667;-81
2023/02/08 07:34:20;;;;;;;;;;;;;;;19.00;26.16;103310.91;105510;1291;61276;-81
2023/02/08 07:36:47;;;;;;;;;;;;;;;19.03;26.25;103315.68;105519;1291;61232;-81
2023/02/08 07:39:13;;;;;;;;;;;;;;;19.05;26.12;103318.13;105387;1291;73432;-81
2023/02/08 07:41:38;;;;;;;;;;;;;;;19.06;26.19;103322.38;105464;1292;61356;-81
2023/02/08 07:44:04;;;;;;;;;;;;;;;19.08;26.17;103323.59;105425;1291;62382;-82
2023/02/08 07:46:30;;;;;;;;;;;;;;;19.09;26.17;103321.95;105486;1291;60232;-81
2023/02/08 07:48:55;;;;;;;;;;;;;;;19.10;26.21;103324.77;105377;1292;60377;-81
2023/02/08 07:51:21;;;;;;;;;;;;;;;19.11;26.05;103322.80;105372;1292;60170;-82
2023/02/08 07:53:46;;;;;;;;;;;;;;;19.13;26.22;103325.09;105430;1291;60054;-82
2023/02/08 07:56:12;;;;;;;;;;;;;;;19.10;26.23;103327.83;105442;1292;59748;-83
2023/02/08 07:58:38;;;;;;;;;;;;;;;19.00;26.20;103330.92;105361;1292;60201;-82
2023/02/08 08:01:03;;;;;;;;;;;;;;;18.91;26.50;103334.85;105466;1286;61578;-83
2023/02/08 08:03:29;;;;;;;;;;;;;;;18.88;26.97;103330.27;106120;1286;61340;-82
2023/02/08 08:05:54;;;;;;;;;;;;;;;18.83;27.13;103341.77;105960;1286;74590;-82
2023/02/08 08:08:21;;;;;;;;;;;;;;;18.81;27.23;103350.03;106097;1285;59985;-82
2023/02/08 08:10:46;;;;;;;;;;;;;;;18.73;27.25;103348.05;106090;1286;61233;-81
2023/02/08 08:13:13;;;;;;;;;;;;;;;18.59;27.35;103351.56;106074;1285;60013;-82
2023/02/08 08:15:39;;;;;;;;;;;;;;;18.53;27.42;103351.67;106053;1288;60598;-80
2023/02/08 08:18:05;;;;;;;;;;;;;;;18.53;27.39;103349.52;106117;1286;60813;-82
2023/02/08 08:20:30;;;;;;;;;;;;;;;18.57;27.52;103350.88;105886;1286;60931;-81
2023/02/08 08:22:56;;;;;;;;;;;;;;;18.64;27.54;103353.60;105869;1286;61288;-81
2023/02/08 08:25:21;;;;;;;;;;;;;;;18.68;27.37;103360.81;106028;1285;73454;-81
2023/02/08 08:27:47;;;;;;;;;;;;;;;18.73;27.52;103359.30;106100;1286;61231;-81
2023/02/08 08:30:13;;;;;;;;;;;;;;;18.77;27.38;103359.39;106170;1285;61279;-80
2023/02/08 08:32:39;;;;;;;;;;;;;;;18.83;27.50;103358.20;105966;1291;70375;-81
2023/02/08 08:35:05;;;;;;;;;;;;;;;18.87;27.39;103361.86;105919;1285;61244;-80
2023/02/08 08:37:31;;;;;;;;;;;;;;;18.91;27.34;103368.23;105881;1286;61495;-81
2023/02/08 08:39:57;;;;;;;;;;;;;;;18.95;27.47;103371.17;105865;1285;61303;-81
2023/02/08 08:42:23;;;;;;;;;;;;;;;18.98;27.43;103365.56;106137;1286;61240;-82
2023/02/08 08:44:48;;;;;;;;;;;;;;;19.00;27.52;103366.23;105893;1285;60274;-81
2023/02/08 08:47:14;;;;;;;;;;;;;;;19.03;27.48;103366.17;105847;1286;61188;-81
2023/02/08 08:49:41;;;;;;;;;;;;;;;19.05;27.49;103371.48;105854;1289;61279;-81
2023/02/08 08:52:07;;;;;;;;;;;;;;;19.08;27.69;103373.04;105805;1286;61019;-81
2023/02/08 08:54:33;;;;;;;;;;;;;;;19.11;27.65;103373.68;105902;1286;61236;-81
2023/02/08 08:56:58;;;;;;;;;;;;;;;19.12;27.63;103376.16;105926;1286;61220;-81
2023/02/08 08:59:24;;;;;;;;;;;;;;;19.15;27.58;103375.22;105838;1286;61182;-79
2023/02/08 09:01:49;;;;;;;;;;;;;;;19.17;27.76;103377.65;105796;1286;59887;-79
2023/02/08 09:04:16;;;;;;;;;;;;;;;19.19;27.70;103382.42;105472;1286;60756;-80
2023/02/08 09:06:42;;;;;;;;;;;;;;;19.19;27.93;103386.36;105818;1291;61555;-80
2023/02/08 09:09:07;;;;;;;;;;;;;;;19.20;28.25;103387.77;105868;1286;61371;-83
2023/02/08 09:11:33;;;;;;;;;;;;;;;19.22;28.48;103390.59;105929;1285;60872;-81
2023/02/08 09:14:03;;;;;;;;;;;;;;;19.25;28.81;103391.39;105868;1285;61327;-81
2023/02/08 09:16:28;;;;;;;;;;;;;;;19.26;28.95;103390.83;105789;1287;61079;-80
2023/02/08 09:18:54;;;;;;;;;;;;;;;19.26;28.90;103391.91;105861;1286;61477;-81
2023/02/08 09:21:20;;;;;;;;;;;;;;;19.26;29.02;103392.09;106069;1286;59858;-80
2023/02/08 09:23:48;;;;;;;;;;;;;;;19.29;29.07;103393.11;106042;1286;59689;-80
2023/02/08 09:26:15;;;;;;;;;;;;;;;19.30;28.93;103398.07;106065;1286;59990;-80
2023/02/08 09:28:41;;;;;;;;;;;;;;;19.32;29.05;103403.38;106658;1285;72689;-80
2023/02/08 09:31:07;;;;;;;;;;;;;;;19.35;29.15;103406.36;106370;1286;59481;-80
2023/02/08 09:33:33;;;;;;;;;;;;;;;19.37;29.36;103409.88;106093;1285;60493;-80
2023/02/08 09:36:00;;;;;;;;;;;;;;;19.39;29.28;103413.94;106144;1286;59643;-80
2023/02/08 09:38:27;;;;;;;;;;;;;;;19.40;29.58;103407.85;106207;1286;60187;-80
2023/02/08 09:41:12;;;;;;;;;;;;;;;19.41;29.66;103408.70;106036;1286;61276;-81
2023/02/08 09:43:47;;;;;;;;;;;;;;;19.43;29.67;103407.60;106384;1285;61142;-81
2023/02/08 09:46:16;;;;;;;;;;;;;;;19.44;29.69;103408.45;106106;1286;60351;-80
2023/02/08 09:48:42;;;;;;;;;;;;;;;19.45;29.67;103407.73;106185;1286;73451;-81
2023/02/08 09:51:26;;;;;;;;;;;;;;;19.45;29.88;103406.48;106157;1285;59436;-81
2023/02/08 09:53:54;;;;;;;;;;;;;;;19.47;29.96;103406.98;106183;1286;59875;-80
2023/02/08 09:56:21;;;;;;;;;;;;;;;19.48;29.91;103405.16;106016;1286;61262;-81
2023/02/08 09:58:50;;;;;;;;;;;;;;;19.49;29.98;103405.14;106010;1285;74470;-82
2023/02/08 10:01:23;;;;;;;;;;;;;;;19.47;30.13;103405.36;105972;1286;74561;-81
2023/02/08 10:03:50;;;;;;;;;;;;;;;19.32;29.92;103399.81;106086;1286;61266;-82
2023/02/08 10:06:16;;;;;;;;;;;;;;;19.11;29.67;103398.48;105885;1286;59925;-82
2023/02/08 10:08:42;;;;;;;;;;;;;;;19.00;30.12;103403.20;106036;1285;60070;-80
2023/02/08 10:11:13;;;;;;;;;;;;;;;18.93;30.24;103403.86;106008;1288;62250;-81
2023/02/08 10:13:42;;;;;;;;;;;;;;;18.88;30.38;103400.74;106160;1285;60038;-81
2023/02/08 10:16:13;;;;;;;;;;;;;;;18.85;30.45;103398.83;106060;1285;60728;-80
2023/02/08 10:18:49;;;;;;;;;;;;;;;18.84;30.52;103397.23;105948;1286;72447;-80
2023/02/08 10:21:14;;;;;;;;;;;;;;;18.86;30.60;103399.34;105958;1286;74389;-80
2023/02/08 10:24:00;;;;;;;;;;;;;;;18.90;30.48;103402.34;105985;1286;61500;-80
2023/02/08 10:26:30;;;;;;;;;;;;;;;18.96;30.66;103403.64;106062;1288;59986;-81
2023/02/08 10:29:14;;;;;;;;;;;;;;;18.99;30.67;103399.28;106309;1286;73367;-80
2023/02/08 10:31:45;;;;;;;;;;;;;;;19.03;30.66;103403.13;105939;1288;75396;-82
2023/02/08 10:34:31;;;;;;;;;;;;;;;19.08;30.75;103403.55;106070;1286;61211;-81
2023/02/08 10:36:56;;;;;;;;;;;;;;;19.11;30.89;103405.09;106029;1286;60149;-82
2023/02/08 10:39:25;;;;;;;;;;;;;;;19.12;31.00;103412.41;106032;1286;61084;-82
2023/02/08 10:41:50;;;;;;;;;;;;;;;19.13;31.14;103410.42;105989;1286;75621;-82
2023/02/08 10:44:22;;;;;;;;;;;;;;;19.11;31.13;103410.27;105972;1286;60586;-82
2023/02/08 10:47:07;;;;;;;;;;;;;;;19.08;31.11;103412.64;106060;1285;61535;-82
2023/02/08 10:49:41;;;;;;;;;;;;;;;19.05;31.21;103413.43;106070;1286;75302;-82
2023/02/08 10:52:06;;;;;;;;;;;;;;;19.00;31.07;103412.46;105917;1285;75368;-82
2023/02/08 10:54:33;;;;;;;;;;;;;;;18.96;31.05;103415.05;106098;1286;61399;-82
2023/02/08 10:57:03;;;;;;;;;;;;;;;18.92;30.91;103402.09;106113;1286;61074;-82
2023/02/08 10:59:37;;;;;;;;;;;;;;;18.91;30.76;103399.63;106064;1285;72411;-82
2023/02/08 11:02:07;;;;;;;;;;;;;;;18.86;30.62;103400.96;106008;1289;74385;-83
2023/02/08 11:04:32;;;;;;;;;;;;;;;18.79;30.66;103403.24;105998;1286;61184;-82
2023/02/08 11:06:58;;;;;;;;;;;;;;;18.64;30.57;103402.30;106107;1286;61437;-82
2023/02/08 11:09:25;;;;;;;;;;;;;;;18.58;30.77;103401.33;106123;1286;59987;-83
2023/02/08 11:11:51;;;;;;;;;;;;;;;18.55;30.88;103407.82;105974;1288;60097;-81
2023/02/08 11:14:30;;;;;;;;;;;;;;;18.52;30.93;103405.02;105985;1286;60040;-81
2023/02/08 11:16:56;;;;;;;;;;;;;;;18.48;30.80;103403.48;106181;1288;61103;-81
2023/02/08 11:19:26;;;;;;;;;;;;;;;18.46;30.86;103405.14;106101;1287;59659;-81
2023/02/08 11:21:52;;;;;;;;;;;;;;;18.46;30.89;103405.67;106157;1285;73886;-83
2023/02/08 11:24:42;;;;;;;;;;;;;;;18.48;30.79;103400.81;106251;1286;61162;-82
2023/02/08 11:27:25;;;;;;;;;;;;;;;18.48;30.75;103398.67;106074;1286;61065;-82
2023/02/08 11:30:08;;;;;;;;;;;;;;;18.47;30.81;103394.07;106153;1286;72623;-82
2023/02/08 11:32:35;;;;;;;;;;;;;;;18.46;30.78;103397.63;106152;1284;74357;-82
2023/02/08 11:35:11;;;;;;;;;;;;;;;18.44;30.70;103391.44;106184;1286;61143;-81
2023/02/08 11:37:36;;;;;;;;;;;;;;;18.44;30.76;103394.11;106032;1286;62056;-82
2023/02/08 11:40:02;;;;;;;;;;;;;;;18.46;30.92;103396.58;106039;1287;59423;-82
2023/02/08 11:42:34;;;;;;;;;;;;;;;18.48;30.98;103399.02;105890;1286;61188;-82
2023/02/08 11:44:59;;;;;;;;;;;;;;;18.51;30.90;103396.48;106136;1286;61422;-83
2023/02/08 11:47:25;;;;;;;;;;;;;;;18.55;30.93;103391.05;106055;1286;60515;-82
2023/02/08 11:49:56;;;;;;;;;;;;;;;18.57;30.93;103389.58;106005;1289;61213;-82
2023/02/08 11:52:26;;;;;;;;;;;;;;;18.51;30.93;103395.05;106144;1286;74663;-82
2023/02/08 11:54:52;;;;;;;;;;;;;;;18.40;30.99;103389.19;106144;1285;60389;-82
2023/02/08 11:57:23;;;;;;;;;;;;;;;18.32;31.03;103387.02;106058;1285;61237;-82
2023/02/08 11:59:49;;;;;;;;;;;;;;;18.31;31.04;103390.42;106105;1286;74919;-82
2023/02/08 12:02:28;;;;;;;;;;;;;;;18.31;31.09;103385.27;106081;1289;61217;-81
2023/02/08 12:04:53;;;;;;;;;;;;;;;18.16;30.57;103381.78;106064;1288;61264;-83
2023/02/08 12:07:20;;;;;;;;;;;;;;;17.99;30.66;103383.69;106060;1286;61288;-82
2023/02/08 12:09:53;;;;;;;;;;;;;;;17.96;30.66;103385.17;106038;1286;73485;-82
2023/02/08 12:12:38;;;;;;;;;;;;;;;17.90;30.55;103390.04;106013;1287;77328;-82
2023/02/08 12:15:06;;;;;;;;;;;;;;;17.93;30.70;103382.18;106044;1286;61111;-82
2023/02/08 12:18:07;;;;;;;;;;;;;;;17.99;30.76;103386.20;106030;1286;60997;-81
2023/02/08 12:20:35;;;;;;;;;;;;;;;18.07;30.62;103394.05;105325;1297;72693;-81
2023/02/08 12:23:20;;;;;;;;;;;;;;;18.11;30.57;103394.71;105922;1286;74883;-82
2023/02/08 12:26:10;;;;;;;;;;;;;;;18.13;30.46;103393.62;106050;1285;61391;-82
2023/02/08 12:28:39;;;;;;;;;;;;;;;18.13;30.34;103392.02;105941;1286;61236;-82
2023/02/08 12:31:23;;;;;;;;;;;;;;;18.15;30.26;103385.92;106023;1286;72589;-83
2023/02/08 12:33:57;;;;;;;;;;;;;;;18.16;30.24;103396.92;105989;1288;75395;-82
2023/02/08 12:36:26;;;;;;;;;;;;;;;18.19;30.24;103394.39;105909;1286;59927;-82